createdAt,value
2022-09-16T00:00:51.672Z,87.45
2022-09-16T00:03:38.571Z,87.66
2022-09-16T00:06:05.896Z,87.65
2022-09-16T00:08:33.389Z,87.72
2022-09-16T00:11:02.079Z,87.59
2022-09-16T00:13:29.393Z,87.73
2022-09-16T00:15:56.534Z,87.64
2022-09-16T00:18:23.675Z,87.68
2022-09-16T00:20:52.772Z,87.68
2022-09-16T00:23:20.166Z,87.54
2022-09-16T00:25:54.111Z,87.53
2022-09-16T00:28:22.663Z,87.60
2022-09-16T00:30:49.894Z,87.43
2022-09-16T00:33:17.405Z,87.59
2022-09-16T00:35:44.548Z,87.55
2022-09-16T00:38:11.539Z,87.72
2022-09-16T00:40:49.839Z,87.65
2022-09-16T00:43:18.959Z,87.71
2022-09-16T00:45:54.635Z,87.56
2022-09-16T00:48:24.336Z,87.67
2022-09-16T00:50:56.423Z,87.88
2022-09-16T00:53:33.924Z,87.79
2022-09-16T00:56:05.962Z,87.76
2022-09-16T00:58:46.820Z,87.74
2022-09-16T01:01:13.737Z,87.48
2022-09-16T01:03:51.857Z,87.47
2022-09-16T01:06:19.558Z,87.43
2022-09-16T01:08:48.373Z,87.22
2022-09-16T01:11:15.216Z,86.88
2022-09-16T01:13:43.564Z,86.42
2022-09-16T01:16:21.560Z,86.47
2022-09-16T01:18:54.217Z,86.10
2022-09-16T01:22:06.530Z,85.89
2022-09-16T01:24:51.883Z,85.81
2022-09-16T01:27:56.229Z,85.50
2022-09-16T01:30:50.664Z,84.93
2022-09-16T01:33:39.452Z,85.04
2022-09-16T01:36:25.301Z,85.34
2022-09-16T01:39:08.204Z,85.21
2022-09-16T01:42:16.610Z,85.26
2022-09-16T01:44:52.433Z,85.31
2022-09-16T01:47:37.689Z,85.01
2022-09-16T01:50:20.684Z,84.82
2022-09-16T01:52:57.582Z,84.65
2022-09-16T01:55:51.032Z,84.35
2022-09-16T01:58:31.257Z,84.20
2022-09-16T02:01:07.934Z,83.71
2022-09-16T02:03:38.171Z,83.55
2022-09-16T02:06:19.018Z,83.15
2022-09-16T02:08:56.915Z,82.81
2022-09-16T02:11:25.034Z,82.99
2022-09-16T02:13:57.444Z,82.79
2022-09-16T02:16:54.792Z,82.76
2022-09-16T02:19:30.328Z,82.67
2022-09-16T02:22:00.756Z,82.70
2022-09-16T02:24:31.015Z,82.23
2022-09-16T02:27:04.179Z,82.49
2022-09-16T02:29:38.927Z,82.47
2022-09-16T02:32:08.935Z,82.35
2022-09-16T02:34:41.420Z,82.38
2022-09-16T02:37:13.872Z,82.62
2022-09-16T02:39:45.454Z,82.99
2022-09-16T02:42:12.414Z,83.33
2022-09-16T02:44:39.742Z,83.36
2022-09-16T02:47:46.203Z,83.31
2022-09-16T02:50:23.854Z,83.36
2022-09-16T02:53:01.118Z,83.59
2022-09-16T02:55:40.108Z,83.60
2022-09-16T02:58:07.876Z,83.59
2022-09-16T03:00:41.411Z,83.63
2022-09-16T03:03:08.730Z,83.59
2022-09-16T03:05:35.660Z,83.58
2022-09-16T03:08:04.145Z,83.78
2022-09-16T03:10:39.671Z,83.93
2022-09-16T03:13:21.154Z,83.93
2022-09-16T03:16:06.760Z,83.79
2022-09-16T03:19:02.163Z,84.07
2022-09-16T03:21:53.486Z,84.04
2022-09-16T03:24:20.187Z,84.08
2022-09-16T03:27:06.083Z,84.29
2022-09-16T03:29:50.759Z,84.40
2022-09-16T03:32:47.195Z,84.29
2022-09-16T03:35:21.934Z,84.68
2022-09-16T03:37:49.954Z,84.96
2022-09-16T03:40:19.416Z,85.39
2022-09-16T03:42:46.510Z,85.52
2022-09-16T03:45:17.479Z,85.67
2022-09-16T03:47:46.224Z,86.01
2022-09-16T03:50:14.255Z,85.90
2022-09-16T03:52:41.632Z,86.08
2022-09-16T03:55:10.875Z,86.38
2022-09-16T03:57:38.855Z,86.32
2022-09-16T04:00:08.537Z,86.53
2022-09-16T04:02:41.153Z,86.56
2022-09-16T04:05:08.974Z,86.75
2022-09-16T04:07:35.994Z,86.74
2022-09-16T04:10:03.716Z,86.49
2022-09-16T04:12:30.738Z,86.34
2022-09-16T04:14:58.346Z,86.32
2022-09-16T04:17:27.290Z,86.24
2022-09-16T04:19:54.278Z,86.27
2022-09-16T04:22:21.092Z,86.12
2022-09-16T04:24:48.276Z,86.34
2022-09-16T04:27:15.837Z,86.25
2022-09-16T04:29:42.900Z,86.58
2022-09-16T04:32:09.690Z,86.89
2022-09-16T04:34:36.668Z,86.94
2022-09-16T04:37:04.301Z,87.03
2022-09-16T04:39:31.257Z,86.92
2022-09-16T04:41:59.660Z,86.77
2022-09-16T04:44:27.152Z,86.83
2022-09-16T04:46:54.137Z,86.61
2022-09-16T04:49:21.142Z,86.52
2022-09-16T04:51:48.620Z,86.86
2022-09-16T04:54:15.714Z,87.05
2022-09-16T04:56:43.250Z,86.87
2022-09-16T04:59:10.351Z,86.78
2022-09-16T05:01:39.419Z,86.55
2022-09-16T05:04:08.013Z,86.33
2022-09-16T05:06:37.777Z,86.10
2022-09-16T05:09:05.070Z,86.33
2022-09-16T05:11:35.962Z,86.04
2022-09-16T05:14:04.993Z,85.14
2022-09-16T05:16:35.727Z,85.48
2022-09-16T05:19:04.971Z,85.83
2022-09-16T05:21:35.360Z,85.38
2022-09-16T05:24:03.938Z,84.63
2022-09-16T05:26:32.682Z,85.06
2022-09-16T05:29:05.202Z,84.51
2022-09-16T05:31:37.725Z,83.99
2022-09-16T05:34:11.078Z,83.19
2022-09-16T05:36:39.242Z,83.33
2022-09-16T05:39:24.040Z,82.97
2022-09-16T05:41:59.799Z,82.45
2022-09-16T05:44:28.508Z,81.78
2022-09-16T05:46:56.191Z,81.52
2022-09-16T05:49:23.833Z,81.55
2022-09-16T05:51:51.765Z,81.39
2022-09-16T05:54:19.466Z,81.63
2022-09-16T05:56:47.394Z,80.70
2022-09-16T05:59:15.330Z,80.75
2022-09-16T06:01:42.897Z,79.74
2022-09-16T06:04:14.565Z,80.34
2022-09-16T06:06:42.963Z,79.86
2022-09-16T06:09:15.844Z,79.45
2022-09-16T06:11:46.162Z,80.00
2022-09-16T06:14:14.622Z,80.21
2022-09-16T06:16:42.780Z,80.25
2022-09-16T06:19:15.541Z,79.06
2022-09-16T06:21:43.959Z,79.23
2022-09-16T06:24:11.934Z,79.65
2022-09-16T06:26:41.182Z,79.31
2022-09-16T06:29:09.540Z,78.98
2022-09-16T06:31:37.950Z,79.27
2022-09-16T06:34:14.409Z,78.97
2022-09-16T06:36:44.692Z,78.98
2022-09-16T06:39:13.887Z,78.90
2022-09-16T06:41:42.606Z,78.34
2022-09-16T06:44:10.046Z,77.00
2022-09-16T06:46:37.527Z,77.48
2022-09-16T06:49:06.062Z,77.60
2022-09-16T06:51:34.801Z,77.65
2022-09-16T06:54:04.325Z,77.84
2022-09-16T06:56:31.893Z,78.06
2022-09-16T06:58:59.292Z,77.73
2022-09-16T07:01:29.237Z,77.78
2022-09-16T07:03:58.443Z,77.48
2022-09-16T07:06:57.462Z,77.72
2022-09-16T07:09:17.760Z,76.45
2022-09-16T07:11:45.226Z,76.53
2022-09-16T07:14:12.421Z,76.65
2022-09-16T07:16:39.424Z,76.53
2022-09-16T07:19:06.928Z,75.62
2022-09-16T07:21:33.722Z,74.81
2022-09-16T07:24:02.734Z,73.65
2022-09-16T07:26:32.877Z,74.44
2022-09-16T07:29:02.107Z,73.15
2022-09-16T07:31:33.183Z,72.71
2022-09-16T07:34:04.890Z,72.74
2022-09-16T07:36:36.664Z,70.37
2022-09-16T07:39:04.196Z,68.54
2022-09-16T07:41:36.805Z,68.36
2022-09-16T07:44:10.346Z,67.26
2022-09-16T07:46:42.181Z,66.73
2022-09-16T07:49:15.007Z,66.52
2022-09-16T07:51:42.259Z,66.79
2022-09-16T07:54:12.029Z,66.60
2022-09-16T07:56:40.492Z,65.20
2022-09-16T07:59:14.246Z,64.18
2022-09-16T08:01:44.966Z,64.75
2022-09-16T08:04:12.310Z,63.89
2022-09-16T08:06:40.534Z,63.27
2022-09-16T08:09:36.800Z,63.59
2022-09-16T08:11:54.747Z,63.08
2022-09-16T08:14:21.876Z,62.88
2022-09-16T08:16:51.496Z,63.28
2022-09-16T08:19:20.568Z,61.85
2022-09-16T08:21:47.640Z,60.70
2022-09-16T08:24:14.977Z,60.35
2022-09-16T08:26:41.974Z,60.06
2022-09-16T08:29:10.395Z,59.17
2022-09-16T08:31:38.606Z,59.14
2022-09-16T08:34:06.157Z,60.89
2022-09-16T08:36:34.010Z,58.23
2022-09-16T08:39:01.621Z,58.35
2022-09-16T08:42:01.127Z,57.27
2022-09-16T08:44:43.630Z,57.21
2022-09-16T08:47:33.245Z,57.33
2022-09-16T08:50:04.370Z,56.78
2022-09-16T08:52:35.334Z,57.58
2022-09-16T08:55:12.023Z,56.33
2022-09-16T08:57:44.882Z,56.27
2022-09-16T09:00:15.806Z,55.48
2022-09-16T09:02:53.221Z,55.59
2022-09-16T09:05:34.528Z,56.76
2022-09-16T09:08:10.270Z,57.64
2022-09-16T09:10:54.427Z,57.07
2022-09-16T09:13:38.466Z,56.47
2022-09-16T09:16:28.093Z,55.71
2022-09-16T09:19:04.530Z,56.25
2022-09-16T09:21:46.940Z,56.03
2022-09-16T09:24:22.914Z,55.99
2022-09-16T09:26:52.591Z,54.08
2022-09-16T09:29:57.902Z,54.46
2022-09-16T09:32:49.826Z,54.10
2022-09-16T09:35:29.560Z,53.66
2022-09-16T09:38:19.326Z,54.43
2022-09-16T09:40:49.326Z,54.82
2022-09-16T09:43:33.572Z,55.28
2022-09-16T09:46:26.630Z,54.83
2022-09-16T09:49:16.512Z,54.91
2022-09-16T09:51:55.079Z,54.57
2022-09-16T09:54:31.131Z,54.16
2022-09-16T09:57:26.804Z,54.95
2022-09-16T10:00:18.296Z,55.47
2022-09-16T10:02:49.820Z,55.82
2022-09-16T10:05:25.553Z,55.45
2022-09-16T10:07:55.208Z,55.29
2022-09-16T10:10:25.737Z,54.59
2022-09-16T10:12:54.705Z,53.78
2022-09-16T10:15:28.999Z,53.84
2022-09-16T10:17:59.563Z,54.19
2022-09-16T10:20:39.062Z,54.31
2022-09-16T10:23:13.114Z,54.36
2022-09-16T10:25:41.438Z,53.93
2022-09-16T10:28:20.223Z,53.30
2022-09-16T10:30:51.590Z,53.06
2022-09-16T10:33:18.743Z,53.43
2022-09-16T10:35:58.045Z,53.63
2022-09-16T10:38:35.006Z,54.11
2022-09-16T10:41:09.613Z,54.36
2022-09-16T10:43:39.448Z,54.20
2022-09-16T10:46:07.743Z,53.59
2022-09-16T10:48:36.346Z,52.82
2022-09-16T10:51:06.371Z,52.27
2022-09-16T10:53:44.058Z,52.28
2022-09-16T10:56:20.398Z,52.32
2022-09-16T10:58:48.229Z,52.48
2022-09-16T11:01:39.918Z,52.81
2022-09-16T11:04:24.369Z,51.48
2022-09-16T11:07:10.921Z,51.36
2022-09-16T11:09:55.149Z,51.73
2022-09-16T11:12:36.971Z,51.89
2022-09-16T11:15:23.547Z,52.52
2022-09-16T11:17:57.918Z,53.02
2022-09-16T11:21:02.179Z,52.31
2022-09-16T11:23:55.927Z,53.06
2022-09-16T11:26:28.391Z,51.92
2022-09-16T11:29:16.739Z,51.70
2022-09-16T11:31:46.939Z,52.05
2022-09-16T11:34:32.992Z,49.97
2022-09-16T11:37:26.233Z,48.39
2022-09-16T11:40:00.876Z,47.63
2022-09-16T11:42:37.830Z,47.30
2022-09-16T11:45:04.835Z,46.73
2022-09-16T11:47:46.570Z,46.25
2022-09-16T11:51:01.180Z,46.18
2022-09-16T11:54:04.227Z,46.90
2022-09-16T11:56:43.569Z,47.43
2022-09-16T11:59:19.444Z,46.74
2022-09-16T12:02:14.299Z,46.60
2022-09-16T12:05:19.689Z,46.60
2022-09-16T12:08:07.145Z,46.45
2022-09-16T12:10:43.235Z,47.36
2022-09-16T12:13:16.810Z,46.99
2022-09-16T12:16:06.014Z,47.42
2022-09-16T12:18:55.789Z,47.38
2022-09-16T12:21:29.040Z,47.66
2022-09-16T12:24:01.074Z,48.41
2022-09-16T12:26:35.026Z,48.11
2022-09-16T12:29:20.450Z,48.16
2022-09-16T12:31:50.239Z,48.36
2022-09-16T12:34:22.738Z,47.90
2022-09-16T12:36:59.641Z,48.06
2022-09-16T12:39:26.559Z,48.11
2022-09-16T12:42:47.154Z,48.08
2022-09-16T12:45:30.707Z,47.88
2022-09-16T12:48:16.242Z,46.68
2022-09-16T12:51:28.576Z,46.10
2022-09-16T12:54:04.953Z,44.56
2022-09-16T12:56:56.231Z,44.96
2022-09-16T12:59:40.340Z,44.25
2022-09-16T13:02:24.204Z,44.93
2022-09-16T13:04:54.933Z,45.32
2022-09-16T13:07:28.821Z,44.69
2022-09-16T13:10:20.897Z,44.45
2022-09-16T13:12:54.617Z,44.27
2022-09-16T13:15:29.428Z,44.99
2022-09-16T13:18:16.831Z,44.58
2022-09-16T13:21:05.870Z,44.12
2022-09-16T13:23:43.148Z,43.86
2022-09-16T13:26:10.649Z,44.40
2022-09-16T13:28:40.842Z,44.89
2022-09-16T13:31:25.050Z,43.61
2022-09-16T13:33:59.140Z,44.30
2022-09-16T13:36:26.290Z,41.83
2022-09-16T13:38:55.555Z,41.46
2022-09-16T13:41:43.025Z,42.30
2022-09-16T13:44:37.313Z,43.05
2022-09-16T13:47:15.596Z,44.03
2022-09-16T13:50:06.373Z,44.46
2022-09-16T13:52:35.499Z,44.03
2022-09-16T13:55:11.003Z,44.23
2022-09-16T13:58:15.209Z,44.68
2022-09-16T14:01:08.027Z,45.01
2022-09-16T14:03:58.631Z,45.82
2022-09-16T14:06:46.054Z,46.07
2022-09-16T14:09:45.434Z,45.90
2022-09-16T14:12:27.859Z,45.99
2022-09-16T14:14:58.997Z,46.63
2022-09-16T14:17:37.319Z,45.85
2022-09-16T14:20:05.718Z,45.29
2022-09-16T14:22:33.820Z,46.03
2022-09-16T14:25:12.786Z,45.74
2022-09-16T14:27:46.461Z,45.10
2022-09-16T14:30:18.257Z,44.78
2022-09-16T14:32:47.690Z,44.61
2022-09-16T14:35:24.897Z,44.97
2022-09-16T14:37:59.917Z,45.11
2022-09-16T14:40:28.607Z,45.41
2022-09-16T14:43:02.198Z,45.45
2022-09-16T14:45:31.218Z,45.38
2022-09-16T14:48:02.063Z,45.50
2022-09-16T14:50:32.857Z,45.60
2022-09-16T14:53:06.264Z,45.46
2022-09-16T14:55:36.350Z,45.12
2022-09-16T14:58:03.823Z,44.88
2022-09-16T15:00:42.537Z,44.06
2022-09-16T15:03:16.409Z,44.55
2022-09-16T15:05:46.745Z,44.84
2022-09-16T15:08:21.681Z,45.23
2022-09-16T15:10:53.284Z,45.90
2022-09-16T15:13:25.560Z,46.33
2022-09-16T15:15:58.745Z,46.65
2022-09-16T15:18:37.900Z,46.94
2022-09-16T15:21:19.805Z,47.12
2022-09-16T15:23:49.964Z,47.47
2022-09-16T15:26:23.018Z,47.39
2022-09-16T15:28:57.754Z,47.22
2022-09-16T15:31:36.812Z,47.64
2022-09-16T15:34:27.936Z,48.21
2022-09-16T15:37:02.839Z,48.35
2022-09-16T15:39:38.761Z,48.74
2022-09-16T15:42:13.722Z,48.40
2022-09-16T15:44:53.079Z,48.88
2022-09-16T15:47:25.529Z,49.34
2022-09-16T15:50:00.495Z,49.55
2022-09-16T15:52:27.771Z,49.71
2022-09-16T15:55:03.438Z,49.96
2022-09-16T15:57:38.603Z,50.09
2022-09-16T16:00:13.082Z,50.11
2022-09-16T16:02:44.493Z,50.58
2022-09-16T16:05:19.828Z,49.25
2022-09-16T16:07:50.312Z,48.61
2022-09-16T16:10:20.378Z,48.64
2022-09-16T16:12:49.412Z,48.34
2022-09-16T16:15:25.281Z,48.58
2022-09-16T16:17:54.446Z,49.40
2022-09-16T16:20:21.845Z,49.26
2022-09-16T16:22:49.061Z,49.80
2022-09-16T16:25:16.981Z,50.09
2022-09-16T16:27:43.947Z,50.41
2022-09-16T16:30:11.136Z,50.19
2022-09-16T16:32:41.564Z,50.88
2022-09-16T16:35:08.809Z,51.29
2022-09-16T16:37:51.989Z,51.25
2022-09-16T16:40:19.300Z,51.29
2022-09-16T16:42:46.262Z,51.56
2022-09-16T16:45:14.524Z,51.42
2022-09-16T16:47:42.632Z,51.90
2022-09-16T16:50:10.286Z,52.25
2022-09-16T16:52:37.301Z,52.38
2022-09-16T16:55:05.405Z,52.38
2022-09-16T16:57:32.486Z,52.62
2022-09-16T16:59:59.759Z,52.95
2022-09-16T17:02:27.029Z,53.61
2022-09-16T17:04:53.959Z,53.83
2022-09-16T17:07:26.054Z,54.59
2022-09-16T17:09:54.949Z,54.99
2022-09-16T17:12:21.997Z,55.59
2022-09-16T17:14:48.896Z,56.06
2022-09-16T17:17:16.245Z,56.47
2022-09-16T17:19:43.340Z,56.91
2022-09-16T17:22:11.027Z,57.25
2022-09-16T17:24:38.416Z,57.40
2022-09-16T17:27:05.436Z,57.70
2022-09-16T17:29:32.519Z,58.06
2022-09-16T17:32:02.518Z,58.38
2022-09-16T17:34:30.162Z,58.97
2022-09-16T17:36:58.375Z,59.17
2022-09-16T17:39:26.310Z,59.61
2022-09-16T17:41:56.645Z,60.02
2022-09-16T17:44:24.701Z,60.25
2022-09-16T17:46:51.925Z,60.48
2022-09-16T17:49:21.867Z,60.83
2022-09-16T17:51:50.237Z,61.21
2022-09-16T17:54:18.122Z,61.57
2022-09-16T17:56:45.405Z,61.85
2022-09-16T17:59:16.820Z,61.69
2022-09-16T18:01:44.732Z,62.17
2022-09-16T18:04:11.726Z,62.00
2022-09-16T18:06:44.649Z,62.17
2022-09-16T18:09:13.188Z,62.23
2022-09-16T18:11:40.718Z,62.49
2022-09-16T18:14:10.864Z,62.65
2022-09-16T18:16:38.900Z,62.85
2022-09-16T18:19:06.727Z,63.35
2022-09-16T18:21:34.246Z,63.40
2022-09-16T18:24:03.122Z,63.65
2022-09-16T18:26:31.824Z,63.90
2022-09-16T18:29:10.530Z,63.98
2022-09-16T18:31:52.343Z,64.25
2022-09-16T18:34:19.330Z,64.65
2022-09-16T18:36:46.728Z,64.97
2022-09-16T18:39:15.870Z,65.04
2022-09-16T18:41:45.284Z,65.13
2022-09-16T18:44:19.624Z,65.22
2022-09-16T18:46:47.316Z,65.54
2022-09-16T18:49:16.391Z,65.56
2022-09-16T18:51:51.185Z,65.80
2022-09-16T18:54:28.232Z,65.76
2022-09-16T18:56:57.292Z,65.93
2022-09-16T18:59:28.489Z,66.23
2022-09-16T19:01:58.163Z,66.06
2022-09-16T19:04:27.814Z,66.33
2022-09-16T19:06:58.784Z,66.43
2022-09-16T19:09:25.702Z,66.40
2022-09-16T19:11:53.119Z,66.65
2022-09-16T19:14:24.727Z,66.78
2022-09-16T19:16:52.622Z,66.71
2022-09-16T19:19:20.911Z,66.75
2022-09-16T19:21:48.109Z,67.24
2022-09-16T19:24:17.587Z,67.28
2022-09-16T19:26:46.074Z,67.39
2022-09-16T19:29:14.851Z,67.51
2022-09-16T19:31:43.609Z,67.71
2022-09-16T19:34:12.168Z,68.04
2022-09-16T19:36:40.643Z,68.25
2022-09-16T19:39:09.472Z,68.42
2022-09-16T19:41:38.580Z,68.66
2022-09-16T19:44:08.415Z,68.69
2022-09-16T19:46:37.640Z,68.91
2022-09-16T19:49:06.594Z,68.96
2022-09-16T19:51:33.504Z,69.25
2022-09-16T19:54:01.277Z,69.50
2022-09-16T19:56:31.952Z,69.64
2022-09-16T19:58:59.399Z,69.94
2022-09-16T20:01:29.199Z,70.39
2022-09-16T20:03:56.599Z,70.68
2022-09-16T20:06:30.828Z,70.73
2022-09-16T20:09:00.358Z,71.22
2022-09-16T20:11:29.996Z,71.39
2022-09-16T20:14:01.870Z,71.48
2022-09-16T20:16:35.691Z,71.85
2022-09-16T20:19:05.041Z,72.24
2022-09-16T20:21:35.791Z,72.32
2022-09-16T20:24:08.309Z,72.44
2022-09-16T20:26:36.055Z,72.83
2022-09-16T20:29:03.731Z,73.00
2022-09-16T20:31:34.077Z,73.17
2022-09-16T20:34:01.667Z,73.40
2022-09-16T20:36:31.018Z,73.46
2022-09-16T20:39:01.405Z,73.76
2022-09-16T20:41:31.050Z,73.76
2022-09-16T20:43:59.182Z,73.87
2022-09-16T20:46:27.848Z,73.87
2022-09-16T20:48:56.760Z,74.00
2022-09-16T20:51:27.283Z,74.27
2022-09-16T20:53:57.321Z,74.15
2022-09-16T20:56:25.814Z,74.10
2022-09-16T20:58:53.408Z,73.96
2022-09-16T21:01:26.411Z,73.83
2022-09-16T21:03:55.812Z,73.99
2022-09-16T21:06:24.416Z,73.86
2022-09-16T21:08:56.532Z,73.94
2022-09-16T21:11:24.205Z,73.75
2022-09-16T21:13:56.748Z,73.97
2022-09-16T21:16:25.038Z,74.08
2022-09-16T21:18:57.094Z,74.07
2022-09-16T21:21:27.760Z,74.19
2022-09-16T21:23:57.689Z,74.29
2022-09-16T21:26:27.340Z,74.77
2022-09-16T21:28:59.738Z,74.67
2022-09-16T21:31:29.670Z,74.88
2022-09-16T21:33:57.384Z,74.92
2022-09-16T21:36:29.382Z,75.19
2022-09-16T21:38:56.794Z,75.21
2022-09-16T21:41:26.661Z,75.22
2022-09-16T21:43:56.386Z,75.44
2022-09-16T21:46:26.773Z,75.50
2022-09-16T21:48:58.412Z,75.27
2022-09-16T21:51:25.961Z,75.24
2022-09-16T21:53:52.831Z,75.23
2022-09-16T21:56:21.572Z,75.40
2022-09-16T21:58:53.110Z,75.39
2022-09-16T22:01:25.561Z,75.42
2022-09-16T22:04:05.064Z,75.65
2022-09-16T22:06:33.045Z,75.84
2022-09-16T22:09:03.119Z,75.89
2022-09-16T22:11:32.023Z,75.92
2022-09-16T22:14:02.772Z,75.66
2022-09-16T22:16:33.034Z,75.73
2022-09-16T22:19:03.916Z,75.59
2022-09-16T22:21:33.478Z,75.69
2022-09-16T22:24:02.054Z,75.84
2022-09-16T22:26:30.278Z,75.74
2022-09-16T22:28:57.716Z,76.06
2022-09-16T22:31:27.322Z,75.85
2022-09-16T22:33:57.147Z,75.80
2022-09-16T22:36:26.557Z,76.09
2022-09-16T22:39:00.766Z,75.95
2022-09-16T22:41:29.298Z,75.98
2022-09-16T22:43:56.510Z,75.96
2022-09-16T22:46:29.464Z,75.88
2022-09-16T22:48:57.953Z,75.78
2022-09-16T22:51:28.287Z,76.12
2022-09-16T22:53:55.436Z,76.28
2022-09-16T22:56:25.355Z,76.35
2022-09-16T22:58:54.306Z,76.31
2022-09-16T23:01:27.262Z,76.65
2022-09-16T23:03:56.798Z,76.50
2022-09-16T23:06:24.970Z,76.58
2022-09-16T23:08:52.867Z,77.01
2022-09-16T23:11:24.170Z,76.92
2022-09-16T23:13:52.809Z,76.98
2022-09-16T23:16:23.285Z,77.20
2022-09-16T23:18:50.720Z,77.29
2022-09-16T23:21:22.347Z,77.42
2022-09-16T23:23:54.120Z,77.23
2022-09-16T23:26:23.923Z,77.47
2022-09-16T23:28:52.841Z,77.90
2022-09-16T23:31:22.582Z,77.96
2022-09-16T23:33:50.133Z,78.04
2022-09-16T23:36:18.277Z,78.31
2022-09-16T23:38:48.802Z,78.36
2022-09-16T23:41:19.676Z,78.23
2022-09-16T23:44:05.608Z,78.55
2022-09-16T23:46:33.477Z,78.95
2022-09-16T23:49:01.022Z,78.87
2022-09-16T23:51:29.035Z,79.34
2022-09-16T23:53:57.139Z,79.54
2022-09-16T23:56:24.402Z,79.51
2022-09-16T23:58:52.187Z,79.49
